Time;durP1;ratioP1;P1;durP2;ratioP2;P2;SDS_P1;SDS_P2;PMS_P1;PMS_P2;Temp;Humidity;BMP_temperature;BMP_pressure;BME280_temperature;BME280_humidity;BME280_pressure;Samples;Min_cycle;Max_cycle;Signal;HPM_P1;HPM_P2
2022/04/16 00:00:55;;;;;;;3.83;2.03;;;;;;;0.43;nan;102487.97;4992658;28;20515;-76
2022/04/16 00:03:23;;;;;;;2.80;1.70;;;;;;;0.39;nan;102493.81;5021101;28;20428;-78
2022/04/16 00:05:55;;;;;;;4.63;1.83;;;;;;;0.32;nan;102490.00;5025417;28;20627;-80
2022/04/16 00:08:24;;;;;;;2.80;1.70;;;;;;;0.18;nan;102494.53;5004535;28;20050;-81
2022/04/16 00:10:52;;;;;;;5.63;1.40;;;;;;;0.17;nan;102491.81;5020697;28;20037;-81
2022/04/16 00:13:20;;;;;;;3.07;1.60;;;;;;;0.09;nan;102490.56;5018495;28;20041;-78
2022/04/16 00:15:49;;;;;;;5.20;1.70;;;;;;;0.12;nan;102491.63;5019919;28;20046;-80
2022/04/16 00:18:17;;;;;;;7.50;2.17;;;;;;;0.05;nan;102499.00;5017199;28;20029;-80
2022/04/16 00:20:44;;;;;;;7.57;3.50;;;;;;;0.03;nan;102498.03;5000232;28;20046;-80
2022/04/16 00:23:12;;;;;;;3.80;1.80;;;;;;;0.00;nan;102491.00;5020759;28;20052;-80
2022/04/16 00:25:39;;;;;;;5.17;2.00;;;;;;;-0.02;nan;102497.78;5020831;28;20396;-78
2022/04/16 00:28:08;;;;;;;4.53;1.60;;;;;;;-0.07;nan;102497.56;5005063;28;20038;-79
2022/04/16 00:30:37;;;;;;;7.30;3.13;;;;;;;-0.16;nan;102488.41;5010110;28;20041;-79
2022/04/16 00:33:06;;;;;;;4.03;1.90;;;;;;;-0.23;nan;102483.69;5035118;28;20037;-77
2022/04/16 00:35:34;;;;;;;3.33;1.90;;;;;;;-0.20;nan;102492.53;5003094;28;20048;-80
2022/04/16 00:38:01;;;;;;;5.53;2.20;;;;;;;-0.26;nan;102494.81;5023120;28;20659;-79
2022/04/16 00:40:28;;;;;;;5.73;2.40;;;;;;;-0.28;nan;102489.53;5024535;28;20061;-79
2022/04/16 00:42:55;;;;;;;5.77;2.23;;;;;;;-0.31;nan;102489.38;5020900;28;20044;-78
2022/04/16 00:45:22;;;;;;;3.27;2.63;;;;;;;-0.38;nan;102491.56;5021211;28;20040;-78
2022/04/16 00:47:50;;;;;;;3.80;2.47;;;;;;;-0.35;nan;102491.72;5038919;28;20025;-79
2022/04/16 00:50:19;;;;;;;4.13;2.43;;;;;;;-0.39;nan;102500.19;5018845;28;20096;-78
2022/04/16 00:52:48;;;;;;;3.73;2.63;;;;;;;-0.43;nan;102500.81;5012238;28;20044;-78
2022/04/16 00:55:15;;;;;;;6.90;2.83;;;;;;;-0.44;nan;102496.44;5011441;28;20038;-78
2022/04/16 00:57:56;;;;;;;5.03;1.93;;;;;;;-0.48;nan;102486.69;5022963;28;20056;-78
2022/04/16 01:00:23;;;;;;;4.07;2.20;;;;;;;-0.44;nan;102486.03;5025125;28;20037;-78
2022/04/16 01:02:50;;;;;;;3.73;2.10;;;;;;;-0.50;nan;102490.94;5028817;28;20116;-78
2022/04/16 01:05:19;;;;;;;3.27;2.30;;;;;;;-0.54;nan;102499.34;5026666;28;20042;-77
2022/04/16 01:07:57;;;;;;;3.47;2.10;;;;;;;-0.59;nan;102506.88;5012993;28;20044;-78
2022/04/16 01:10:27;;;;;;;4.37;2.07;;;;;;;-0.60;nan;102510.28;5028120;28;20034;-78
2022/04/16 01:12:55;;;;;;;4.97;2.63;;;;;;;-0.59;nan;102510.38;5042740;28;20041;-78
2022/04/16 01:15:23;;;;;;;5.30;2.70;;;;;;;-0.55;nan;102515.72;5029082;28;20034;-78
2022/04/16 01:17:51;;;;;;;4.77;2.67;;;;;;;-0.57;nan;102518.25;5010709;28;20041;-78
2022/04/16 01:20:19;;;;;;;5.20;2.60;;;;;;;-0.54;nan;102518.41;5021604;28;20033;-78
2022/04/16 01:22:48;;;;;;;5.67;2.70;;;;;;;-0.49;nan;102523.88;5024555;28;20033;-78
2022/04/16 01:25:15;;;;;;;5.13;2.40;;;;;;;-0.52;nan;102524.56;5028258;28;20033;-78
2022/04/16 01:27:46;;;;;;;3.10;2.17;;;;;;;-0.52;nan;102521.09;5031783;28;20037;-78
2022/04/16 01:30:14;;;;;;;4.47;2.13;;;;;;;-0.64;nan;102523.91;5005313;28;20076;-78
2022/04/16 01:32:41;;;;;;;3.93;2.23;;;;;;;-0.62;nan;102519.69;5038391;28;20493;-78
2022/04/16 01:35:08;;;;;;;2.90;2.00;;;;;;;-0.64;nan;102534.31;5023756;28;20041;-78
2022/04/16 01:37:37;;;;;;;2.33;1.73;;;;;;;-0.79;nan;102534.34;5025750;28;20041;-78
2022/04/16 01:40:07;;;;;;;3.23;1.90;;;;;;;-0.88;nan;102529.53;5026578;28;20043;-78
2022/04/16 01:42:34;;;;;;;3.60;2.17;;;;;;;-0.88;nan;102526.03;5038196;28;20054;-78
2022/04/16 01:45:09;;;;;;;2.63;1.73;;;;;;;-0.82;nan;102531.59;5024703;28;20043;-78
2022/04/16 01:47:40;;;;;;;2.50;1.73;;;;;;;-0.84;nan;102533.22;5027949;28;20040;-78
2022/04/16 01:50:09;;;;;;;5.03;2.13;;;;;;;-0.97;nan;102534.22;5022495;28;20037;-79
2022/04/16 01:52:37;;;;;;;4.63;2.20;;;;;;;-1.05;nan;102527.69;5022531;28;20053;-78
2022/04/16 01:55:05;;;;;;;3.30;1.90;;;;;;;-1.06;nan;102525.91;5023952;28;20042;-79
2022/04/16 01:57:32;;;;;;;2.00;1.60;;;;;;;-1.05;nan;102525.09;5028730;28;20037;-78
2022/04/16 01:59:59;;;;;;;3.93;2.00;;;;;;;-1.01;nan;102526.16;5027958;28;20044;-78
2022/04/16 02:02:26;;;;;;;2.93;2.27;;;;;;;-1.06;nan;102522.44;5028641;28;20041;-79
2022/04/16 02:04:53;;;;;;;2.53;1.93;;;;;;;-1.00;nan;102522.78;5041780;28;20033;-79
2022/04/16 02:07:20;;;;;;;6.17;2.23;;;;;;;-1.11;nan;102531.63;5023212;28;20036;-80
2022/04/16 02:09:47;;;;;;;3.00;1.73;;;;;;;-1.08;nan;102521.44;5010394;28;20463;-80
2022/04/16 02:12:17;;;;;;;4.10;1.77;;;;;;;-1.14;nan;102522.88;5008373;28;20074;-80
2022/04/16 02:14:44;;;;;;;3.00;2.03;;;;;;;-1.05;nan;102532.88;5040746;28;20506;-79
2022/04/16 02:17:11;;;;;;;7.87;1.90;;;;;;;-1.04;nan;102537.25;5003973;28;20042;-79
2022/04/16 02:19:38;;;;;;;3.50;1.80;;;;;;;-1.07;nan;102536.22;5017825;28;20045;-79
2022/04/16 02:22:05;;;;;;;2.33;1.77;;;;;;;-1.19;nan;102544.16;5008644;28;20052;-79
2022/04/16 02:24:36;;;;;;;1.87;1.43;;;;;;;-1.21;nan;102544.09;5008460;28;20054;-79
2022/04/16 02:27:04;;;;;;;6.23;1.90;;;;;;;-1.24;nan;102543.03;5013801;28;20112;-78
2022/04/16 02:29:31;;;;;;;6.50;1.77;;;;;;;-1.29;nan;102545.34;5010360;28;20026;-79
2022/04/16 02:31:58;;;;;;;2.73;1.60;;;;;;;-1.32;nan;102545.19;5012797;28;20042;-79
2022/04/16 02:34:26;;;;;;;2.90;1.73;;;;;;;-1.28;nan;102547.13;5008892;28;20519;-79
2022/04/16 02:36:58;;;;;;;2.17;1.57;;;;;;;-1.41;nan;102549.84;5026891;28;20040;-79
2022/04/16 02:39:25;;;;;;;2.60;1.93;;;;;;;-1.40;nan;102546.44;5023058;28;20072;-79
2022/04/16 02:41:52;;;;;;;3.23;1.87;;;;;;;-1.34;nan;102549.38;5020163;28;20052;-78
2022/04/16 02:47:13;;;;;;;2.97;1.70;;;;;;;-1.45;nan;102559.09;5026938;28;20030;-80
2022/04/16 02:49:43;;;;;;;2.63;1.70;;;;;;;-1.40;nan;102567.16;5043956;28;20041;-79
2022/04/16 02:52:10;;;;;;;2.73;1.90;;;;;;;-1.46;nan;102566.78;4994268;28;20397;-79
2022/04/16 02:54:37;;;;;;;3.50;1.73;;;;;;;-1.45;nan;102568.59;5026168;28;20037;-79
2022/04/16 02:57:07;;;;;;;2.47;1.60;;;;;;;-1.53;nan;102569.84;5022676;28;20041;-79
2022/04/16 02:59:39;;;;;;;2.60;1.63;;;;;;;-1.56;nan;102573.16;5005605;28;20045;-79
2022/04/16 03:02:06;;;;;;;5.07;1.93;;;;;;;-1.52;nan;102575.09;5007339;28;20048;-79
2022/04/16 03:04:38;;;;;;;3.13;1.87;;;;;;;-1.43;nan;102572.16;4994781;28;20049;-80
2022/04/16 03:07:05;;;;;;;4.93;2.10;;;;;;;-1.38;nan;102573.31;5022595;28;20393;-79
2022/04/16 03:09:32;;;;;;;2.27;1.60;;;;;;;-1.48;nan;102573.59;5028219;28;20041;-79
2022/04/16 03:11:59;;;;;;;2.30;1.60;;;;;;;-1.45;nan;102579.84;5010994;28;20449;-78
2022/04/16 03:20:05;;;;;;;8.00;5.10;;;;;;;-1.64;nan;102566.59;5027115;28;20041;-78
2022/04/16 03:22:33;;;;;;;7.93;3.90;;;;;;;-1.68;nan;102571.50;5010473;28;20055;-79
2022/04/16 03:25:07;;;;;;;6.07;2.90;;;;;;;-1.72;nan;102579.09;5023266;28;20047;-78
2022/04/16 03:27:34;;;;;;;4.85;3.22;;;;;;;-1.71;nan;102580.00;5013069;28;20026;-79
2022/04/16 03:30:02;;;;;;;4.13;2.57;;;;;;;-1.77;nan;102580.50;5008582;28;20048;-79
2022/04/16 03:32:29;;;;;;;4.07;2.47;;;;;;;-1.72;nan;102586.00;5008578;28;20541;-79
2022/04/16 03:34:57;;;;;;;7.63;4.03;;;;;;;-1.75;nan;102594.47;5044176;28;20494;-79
2022/04/16 03:37:25;;;;;;;10.50;7.87;;;;;;;-1.72;nan;102589.47;5025677;28;20045;-79
2022/04/16 03:39:52;;;;;;;10.40;7.67;;;;;;;-1.66;nan;102590.66;5014653;28;20048;-78
2022/04/16 03:42:20;;;;;;;6.57;5.17;;;;;;;-1.70;nan;102590.44;4993475;28;20117;-79
2022/04/16 03:44:46;;;;;;;10.10;4.50;;;;;;;-1.67;nan;102600.13;5022522;28;20048;-79
2022/04/16 03:47:13;;;;;;;5.00;3.10;;;;;;;-1.74;nan;102597.97;5037288;28;20037;-79
2022/04/16 03:49:40;;;;;;;5.30;2.90;;;;;;;-1.72;nan;102610.19;5022247;28;20513;-79
2022/04/16 03:52:07;;;;;;;3.73;1.97;;;;;;;-1.75;nan;102610.03;5026684;28;20036;-78
2022/04/16 04:00:08;;;;;;;3.93;2.73;;;;;;;-1.79;nan;102613.22;5026068;28;20037;-78
2022/04/16 04:02:38;;;;;;;5.40;3.30;;;;;;;-1.87;nan;102617.03;5027540;28;20041;-78
2022/04/16 04:05:07;;;;;;;5.33;3.17;;;;;;;-1.94;nan;102619.16;5018704;28;20049;-79
2022/04/16 04:07:37;;;;;;;4.30;2.87;;;;;;;-1.78;nan;102621.88;4990335;28;20042;-77
2022/04/16 04:10:04;;;;;;;4.20;3.13;;;;;;;-1.81;nan;102625.19;5012784;28;20047;-79
2022/04/16 04:12:31;;;;;;;3.93;2.40;;;;;;;-1.91;nan;102619.38;5007994;28;20041;-78
2022/04/16 04:14:59;;;;;;;4.17;2.13;;;;;;;-1.87;nan;102621.31;5022145;28;20036;-78
2022/04/16 04:17:26;;;;;;;4.40;1.60;;;;;;;-1.86;nan;102621.41;5007275;28;20054;-78
2022/04/16 04:19:53;;;;;;;2.87;1.90;;;;;;;-1.85;nan;102630.06;5021929;28;20045;-78
2022/04/16 04:22:20;;;;;;;3.23;1.90;;;;;;;-1.90;nan;102631.50;5014955;28;20034;-81
2022/04/16 04:24:57;;;;;;;8.83;4.77;;;;;;;-1.88;nan;102635.97;5006663;28;20057;-78
2022/04/16 04:27:24;;;;;;;17.33;11.80;;;;;;;-1.90;nan;102635.00;5007735;28;20041;-79
2022/04/16 04:29:51;;;;;;;25.23;16.27;;;;;;;-1.90;nan;102645.34;4990378;28;20037;-78
2022/04/16 04:32:18;;;;;;;19.90;13.77;;;;;;;-1.90;nan;102650.53;5028157;28;20045;-78
2022/04/16 04:34:45;;;;;;;15.03;10.03;;;;;;;-1.84;nan;102653.50;4996367;28;20056;-79
2022/04/16 04:37:12;;;;;;;13.87;8.37;;;;;;;-1.89;nan;102652.31;5010713;28;20045;-79
2022/04/16 04:39:39;;;;;;;7.90;5.83;;;;;;;-1.89;nan;102651.44;5014285;28;20534;-78
2022/04/16 04:42:06;;;;;;;5.97;3.87;;;;;;;-1.85;nan;102656.91;5031397;28;20401;-77
2022/04/16 04:44:36;;;;;;;5.73;3.00;;;;;;;-1.85;nan;102668.94;5040502;28;20498;-78
2022/04/16 04:47:04;;;;;;;5.53;3.13;;;;;;;-1.87;nan;102663.66;5015761;28;20038;-77
2022/04/16 04:49:32;;;;;;;4.70;2.83;;;;;;;-1.85;nan;102659.50;5026819;28;20511;-80
2022/04/16 04:51:59;;;;;;;5.33;3.77;;;;;;;-1.87;nan;102668.84;5027029;28;20052;-79
2022/04/16 04:54:26;;;;;;;8.73;5.03;;;;;;;-1.85;nan;102667.28;5010459;28;20055;-79
2022/04/16 04:56:53;;;;;;;10.63;6.80;;;;;;;-1.81;nan;102666.66;5024786;28;20809;-80
2022/04/16 04:59:20;;;;;;;12.33;7.77;;;;;;;-1.77;nan;102665.13;5030831;28;20041;-78
2022/04/16 05:01:47;;;;;;;28.20;16.17;;;;;;;-1.74;nan;102673.09;5010701;28;20037;-79
2022/04/16 05:04:15;;;;;;;29.87;17.57;;;;;;;-1.66;nan;102682.25;4995308;28;20034;-77
2022/04/16 05:06:42;;;;;;;32.07;19.30;;;;;;;-1.69;nan;102674.25;5025501;28;20437;-77
2022/04/16 05:09:10;;;;;;;26.93;16.23;;;;;;;-1.64;nan;102672.88;4997863;28;20047;-81
2022/04/16 05:11:37;;;;;;;22.57;13.63;;;;;;;-1.65;nan;102677.97;5029173;28;20036;-81
2022/04/16 05:14:04;;;;;;;18.43;10.77;;;;;;;-1.53;nan;102689.06;5026788;28;20045;-79
2022/04/16 05:16:31;;;;;;;24.43;15.13;;;;;;;-1.53;nan;102681.28;5011570;28;20541;-79
2022/04/16 05:18:58;;;;;;;22.70;12.33;;;;;;;-1.52;nan;102685.66;5010037;28;20033;-80
2022/04/16 05:21:25;;;;;;;12.60;7.90;;;;;;;-1.54;nan;102685.56;5012426;28;20045;-79
2022/04/16 05:23:52;;;;;;;10.30;6.00;;;;;;;-1.53;nan;102696.84;5028622;28;20041;-79
2022/04/16 05:26:20;;;;;;;5.03;2.70;;;;;;;-1.51;nan;102692.66;5020326;28;20048;-79
2022/04/16 05:28:47;;;;;;;5.97;2.80;;;;;;;-1.48;nan;102693.72;5010142;28;20491;-79
2022/04/16 05:31:14;;;;;;;4.13;2.20;;;;;;;-1.37;nan;102696.97;5043140;28;20057;-79
2022/04/16 05:36:32;;;;;;;2.93;1.60;;;;;;;-1.29;nan;102706.09;5029193;28;20695;-80
2022/04/16 05:38:59;;;;;;;2.80;1.70;;;;;;;-1.24;nan;102714.19;5027509;28;20040;-79
2022/04/16 05:41:26;;;;;;;3.00;1.60;;;;;;;-1.07;nan;102710.00;5025988;28;20045;-80
2022/04/16 05:43:53;;;;;;;5.93;1.80;;;;;;;-1.03;nan;102711.97;5022692;28;20042;-79
2022/04/16 05:46:20;;;;;;;3.87;1.70;;;;;;;-0.92;nan;102726.47;5028399;28;20045;-80
2022/04/16 05:48:47;;;;;;;2.43;1.70;;;;;;;-0.79;nan;102718.59;5028432;28;20398;-79
2022/04/16 05:51:14;;;;;;;2.37;1.47;;;;;;;-0.77;nan;102718.69;5031175;28;20033;-80
2022/04/16 05:53:41;;;;;;;2.73;1.43;;;;;;;-0.75;nan;102717.97;5030969;28;20040;-80
2022/04/16 05:56:09;;;;;;;2.50;1.40;;;;;;;-0.74;nan;102719.78;5021282;28;20037;-79
2022/04/16 05:58:37;;;;;;;2.53;1.80;;;;;;;-0.59;nan;102723.25;5012311;28;20036;-80
2022/04/16 06:01:04;;;;;;;2.50;1.47;;;;;;;-0.57;nan;102725.94;5029607;28;20120;-80
2022/04/16 06:03:31;;;;;;;4.07;1.60;;;;;;;-0.50;nan;102720.28;5027531;28;20046;-80
2022/04/16 06:06:00;;;;;;;3.57;1.43;;;;;;;-0.33;nan;102718.66;5024699;28;20409;-80
2022/04/16 06:08:27;;;;;;;4.97;1.97;;;;;;;-0.16;nan;102724.81;5023180;28;20041;-80
2022/04/16 06:10:56;;;;;;;6.73;2.40;;;;;;;0.26;nan;102721.09;5028806;28;20041;-80
2022/04/16 06:13:30;;;;;;;3.70;2.20;;;;;;;0.75;nan;102721.97;5028521;28;20050;-80
2022/04/16 06:16:00;;;;;;;5.63;2.77;;;;;;;1.20;nan;102724.28;5018495;28;20033;-81
2022/04/16 06:18:27;;;;;;;4.17;2.30;;;;;;;1.08;nan;102725.41;5008307;28;20030;-79
2022/04/16 06:20:56;;;;;;;3.87;1.80;;;;;;;1.15;nan;102720.53;5023718;28;20052;-79
2022/04/16 06:23:23;;;;;;;5.93;1.93;;;;;;;1.21;nan;102719.13;5008364;28;20700;-79
2022/04/16 06:25:50;;;;;;;2.63;1.67;;;;;;;1.35;nan;102725.94;5032828;28;20038;-80
2022/04/16 06:28:17;;;;;;;5.37;2.60;;;;;;;1.97;nan;102725.50;5023702;28;20391;-78
2022/04/16 06:30:44;;;;;;;2.37;1.43;;;;;;;3.43;nan;102729.38;5019285;28;20487;-79
2022/04/16 06:33:11;;;;;;;4.80;3.10;;;;;;;5.74;nan;102723.16;5025098;28;20033;-79
2022/04/16 06:35:38;;;;;;;6.00;1.80;;;;;;;6.89;nan;102722.25;5029677;28;20050;-79
2022/04/16 06:38:06;;;;;;;4.80;1.20;;;;;;;8.26;nan;102722.16;4996568;28;20034;-79
2022/04/16 06:40:33;;;;;;;2.47;1.30;;;;;;;8.41;nan;102726.06;5028807;28;20041;-79
2022/04/16 06:43:00;;;;;;;5.97;1.23;;;;;;;7.56;nan;102726.66;5013367;28;20042;-79
2022/04/16 06:45:27;;;;;;;2.17;1.55;;;;;;;7.57;nan;102728.47;5004347;28;20042;-79
2022/04/16 06:47:54;;;;;;;1.83;0.95;;;;;;;8.16;nan;102714.06;5009143;28;20030;-78
2022/04/16 06:50:21;;;;;;;2.15;1.05;;;;;;;9.15;nan;102719.59;5022605;28;20029;-79
2022/04/16 06:52:48;;;;;;;3.03;1.02;;;;;;;8.95;nan;102727.13;5019936;28;20038;-78
2022/04/16 06:55:15;;;;;;;2.72;1.35;;;;;;;8.48;nan;102723.53;5020534;28;20041;-79
2022/04/16 06:57:42;;;;;;;1.60;1.00;;;;;;;8.16;nan;102726.34;5012179;28;20041;-79
2022/04/16 07:00:10;;;;;;;2.63;1.27;;;;;;;7.04;nan;102734.06;5024211;28;20509;-78
2022/04/16 07:02:41;;;;;;;2.00;1.10;;;;;;;6.99;nan;102743.59;5020934;28;20038;-80
2022/04/16 07:05:08;;;;;;;1.80;1.10;;;;;;;7.23;nan;102743.38;5019820;28;20037;-80
2022/04/16 07:07:36;;;;;;;6.13;1.40;;;;;;;7.64;nan;102740.88;5006790;28;21569;-80
2022/04/16 07:10:03;;;;;;;1.77;1.10;;;;;;;7.89;nan;102745.88;5003296;28;20041;-78
2022/04/16 07:12:30;;;;;;;2.37;1.20;;;;;;;7.55;nan;102741.53;5025074;28;20513;-78
2022/04/16 07:14:57;;;;;;;3.03;1.10;;;;;;;7.19;nan;102749.38;5006875;28;20506;-79
2022/04/16 07:17:24;;;;;;;1.87;1.00;;;;;;;7.43;nan;102740.34;5025975;28;20081;-79
2022/04/16 07:19:52;;;;;;;2.63;0.93;;;;;;;7.49;nan;102748.41;5028102;28;20518;-78
2022/04/16 07:22:19;;;;;;;2.93;1.00;;;;;;;7.66;nan;102740.94;5007826;28;20037;-78
2022/04/16 07:24:48;;;;;;;2.30;1.10;;;;;;;7.86;nan;102745.81;5033042;28;20048;-77
2022/04/16 07:27:16;;;;;;;2.47;1.20;;;;;;;8.08;nan;102749.88;5010383;28;20048;-78
2022/04/16 07:29:43;;;;;;;2.77;1.63;;;;;;;7.61;nan;102746.06;5027008;28;20383;-77
2022/04/16 07:32:10;;;;;;;2.67;1.13;;;;;;;7.35;nan;102742.78;5028163;28;20130;-77
2022/04/16 07:34:38;;;;;;;1.73;1.03;;;;;;;7.70;nan;102737.53;5024338;28;20636;-77
2022/04/16 07:37:05;;;;;;;3.07;1.27;;;;;;;7.97;nan;102737.28;5023882;28;20040;-77
2022/04/16 07:39:32;;;;;;;1.80;1.60;;;;;;;8.05;nan;102743.63;5009682;28;20038;-77
2022/04/16 07:41:59;;;;;;;2.03;1.00;;;;;;;7.81;nan;102747.44;5035615;28;20048;-77
2022/04/16 07:44:26;;;;;;;1.83;0.90;;;;;;;7.99;nan;102752.28;5017820;28;20050;-77
2022/04/16 07:46:53;;;;;;;1.00;0.90;;;;;;;8.05;nan;102749.78;5012584;28;20037;-76
2022/04/16 07:49:20;;;;;;;3.23;1.10;;;;;;;7.27;nan;102758.34;5022296;28;20052;-76
2022/04/16 07:51:48;;;;;;;1.23;0.87;;;;;;;7.50;nan;102752.81;5034980;28;20049;-76
2022/04/16 07:54:17;;;;;;;1.50;1.00;;;;;;;7.62;nan;102763.63;5019070;28;20033;-76
2022/04/16 07:56:44;;;;;;;2.10;0.87;;;;;;;7.85;nan;102761.59;5026954;28;20052;-76
2022/04/16 07:59:12;;;;;;;1.40;1.03;;;;;;;7.63;nan;102763.66;5006437;28;20143;-76
2022/04/16 08:01:40;;;;;;;1.03;0.87;;;;;;;7.76;nan;102758.72;5017869;28;20029;-76
2022/04/16 08:04:07;;;;;;;1.87;0.83;;;;;;;7.86;nan;102758.97;5022479;28;20033;-76
2022/04/16 08:06:34;;;;;;;1.90;1.00;;;;;;;7.95;nan;102754.78;5020655;28;20482;-76
2022/04/16 08:09:04;;;;;;;1.77;1.00;;;;;;;7.89;nan;102759.03;5012044;28;20402;-76
2022/04/16 08:11:32;;;;;;;1.58;1.10;;;;;;;7.63;nan;102755.78;5026687;28;20047;-76
2022/04/16 08:14:00;;;;;;;1.25;0.85;;;;;;;7.72;nan;102757.75;5008593;28;20037;-76
2022/04/16 08:16:27;;;;;;;1.87;1.10;;;;;;;7.90;nan;102771.38;5024941;28;20052;-76
2022/04/16 08:18:54;;;;;;;2.10;1.00;;;;;;;7.42;nan;102775.41;5031490;28;20049;-77
2022/04/16 08:21:22;;;;;;;1.80;1.10;;;;;;;7.82;nan;102774.69;5022968;28;20046;-76
2022/04/16 08:24:12;;;;;;;1.80;0.97;;;;;;;7.80;nan;102782.50;5026469;28;20570;-76
2022/04/16 08:26:40;;;;;;;1.83;0.90;;;;;;;7.96;nan;102781.16;5013491;28;20045;-76
2022/04/16 08:29:08;;;;;;;1.00;0.90;;;;;;;7.86;nan;102772.13;5021710;28;20042;-75
2022/04/16 08:31:35;;;;;;;1.65;1.13;;;;;;;7.78;nan;102786.84;5026166;28;20043;-76
2022/04/16 08:34:03;;;;;;;1.17;0.97;;;;;;;8.00;nan;102779.50;5021942;28;20433;-76
2022/04/16 08:36:29;;;;;;;1.17;0.77;;;;;;;7.92;nan;102783.69;4999508;28;20056;-76
2022/04/16 08:38:56;;;;;;;1.02;0.68;;;;;;;8.27;nan;102787.16;5007444;28;20045;-76
2022/04/16 08:41:25;;;;;;;2.47;1.48;;;;;;;8.54;nan;102792.19;5022665;28;20044;-75
2022/04/16 08:43:54;;;;;;;0.88;0.80;;;;;;;8.35;nan;102791.75;5024248;28;20527;-75
2022/04/16 08:46:21;;;;;;;1.23;0.73;;;;;;;8.06;nan;102793.66;5020305;28;20037;-76
2022/04/16 08:48:48;;;;;;;1.30;1.20;;;;;;;8.33;nan;102792.56;5017758;28;20048;-75
2022/04/16 08:51:16;;;;;;;2.05;0.90;;;;;;;8.25;nan;102788.88;5026290;28;20037;-76
2022/04/16 08:53:43;;;;;;;1.45;1.00;;;;;;;8.51;nan;102781.56;5020414;28;20380;-76
2022/04/16 08:56:11;;;;;;;1.02;0.93;;;;;;;8.27;nan;102795.03;5021248;28;20052;-76
2022/04/16 08:58:39;;;;;;;1.07;0.80;;;;;;;8.59;nan;102785.28;5025008;28;20053;-75
2022/04/16 09:01:07;;;;;;;1.23;1.00;;;;;;;8.59;nan;102788.78;5026791;28;20037;-76
2022/04/16 09:03:35;;;;;;;1.83;0.95;;;;;;;8.87;nan;102790.25;5008244;28;20052;-76
2022/04/16 09:06:03;;;;;;;3.00;0.90;;;;;;;8.72;nan;102788.19;5011373;28;20038;-76
2022/04/16 09:08:32;;;;;;;1.73;1.05;;;;;;;8.77;nan;102785.66;5021559;28;20037;-76
2022/04/16 09:11:11;;;;;;;2.13;0.90;;;;;;;8.97;nan;102772.88;5009944;28;20045;-76
2022/04/16 09:13:54;;;;;;;1.80;1.20;;;;;;;8.96;nan;102786.91;5007183;28;20046;-75
2022/04/16 09:16:22;;;;;;;3.70;1.10;;;;;;;9.32;nan;102781.44;5024581;28;20045;-75
2022/04/16 09:18:54;;;;;;;1.27;0.80;;;;;;;9.17;nan;102779.44;5020276;28;20038;-76
2022/04/16 09:21:26;;;;;;;1.90;1.05;;;;;;;9.56;nan;102773.09;5019778;28;20507;-76
2022/04/16 09:24:00;;;;;;;1.98;0.90;;;;;;;9.19;nan;102776.81;5009068;28;20049;-76
2022/04/16 09:26:32;;;;;;;1.73;1.10;;;;;;;9.50;nan;102780.91;5011700;28;20056;-76
2022/04/16 09:29:12;;;;;;;2.92;1.00;;;;;;;9.41;nan;102778.97;5004519;28;20038;-77
2022/04/16 09:31:41;;;;;;;0.95;0.80;;;;;;;10.04;nan;102775.66;5019264;28;20054;-76
2022/04/16 09:34:49;;;;;;;1.88;0.98;;;;;;;10.43;nan;102774.53;5024317;28;20050;-76
2022/04/16 09:37:24;;;;;;;1.02;0.70;;;;;;;10.67;nan;102758.97;5026012;28;20044;-76
2022/04/16 09:39:51;;;;;;;1.27;0.90;;;;;;;10.89;nan;102760.13;5022553;28;20030;-77
2022/04/16 09:42:27;;;;;;;1.27;0.70;;;;;;;10.90;nan;102755.72;5022701;28;20041;-79
2022/04/16 09:44:54;;;;;;;0.98;0.80;;;;;;;10.69;nan;102765.19;5023393;28;20038;-76
2022/04/16 09:47:24;;;;;;;0.70;0.70;;;;;;;10.48;nan;102756.06;5023534;28;20401;-77
2022/04/16 09:49:54;;;;;;;2.53;1.10;;;;;;;10.37;nan;102761.22;5005100;28;20038;-76
2022/04/16 09:52:22;;;;;;;1.67;0.82;;;;;;;10.52;nan;102753.50;5006715;28;20050;-76
2022/04/16 09:54:50;;;;;;;1.40;0.82;;;;;;;10.65;nan;102762.47;5034819;28;20049;-76
2022/04/16 09:57:20;;;;;;;1.60;0.80;;;;;;;10.91;nan;102757.50;5016466;28;20042;-76
2022/04/16 09:59:51;;;;;;;0.85;0.75;;;;;;;10.96;nan;102761.09;5015392;28;20067;-76
2022/04/16 10:02:18;;;;;;;1.10;1.00;;;;;;;11.49;nan;102758.09;4995948;28;20046;-76
2022/04/16 10:04:46;;;;;;;5.45;5.03;;;;;;;11.29;nan;102752.63;4998788;28;20034;-77
2022/04/16 10:07:16;;;;;;;2.13;1.05;;;;;;;11.30;nan;102756.16;5033657;28;20043;-77
2022/04/16 10:09:45;;;;;;;1.13;0.70;;;;;;;11.75;nan;102763.63;5017552;28;20629;-77
2022/04/16 10:15:21;;;;;;;1.58;0.70;;;;;;;11.38;nan;102765.94;5034241;28;20035;-77
2022/04/16 10:17:58;;;;;;;1.15;0.80;;;;;;;11.26;nan;102758.75;5018334;28;20034;-77
2022/04/16 10:20:40;;;;;;;1.73;0.82;;;;;;;11.13;nan;102764.81;5018283;28;20042;-78
2022/04/16 10:23:08;;;;;;;1.73;0.65;;;;;;;11.02;nan;102760.28;5009769;28;20491;-77
2022/04/16 10:25:39;;;;;;;0.93;0.70;;;;;;;11.53;nan;102765.22;5023044;28;20042;-77
2022/04/16 10:28:08;;;;;;;0.95;0.80;;;;;;;12.04;nan;102750.66;5021274;28;20119;-77
2022/04/16 10:30:37;;;;;;;3.00;0.77;;;;;;;11.36;nan;102762.41;5022783;28;20041;-77
2022/04/16 10:33:18;;;;;;;0.60;0.60;;;;;;;11.86;nan;102751.41;5019312;28;20060;-77
2022/04/16 10:35:54;;;;;;;1.27;0.88;;;;;;;11.77;nan;102749.53;5008534;28;20061;-76
2022/04/16 10:38:38;;;;;;;0.88;0.70;;;;;;;11.83;nan;102751.34;5020849;28;20037;-77
2022/04/16 10:41:18;;;;;;;1.30;0.65;;;;;;;11.78;nan;102747.78;5022276;28;20125;-78
2022/04/16 10:43:59;;;;;;;1.00;0.77;;;;;;;11.37;nan;102769.47;5021344;28;20483;-77
2022/04/16 10:46:43;;;;;;;2.08;0.77;;;;;;;11.26;nan;102753.47;5030567;28;20237;-77
2022/04/16 10:49:11;;;;;;;1.77;1.00;;;;;;;11.31;nan;102756.16;5018918;28;20046;-77
2022/04/16 10:51:38;;;;;;;0.93;0.80;;;;;;;10.98;nan;102769.91;5010177;28;20045;-78
2022/04/16 10:54:11;;;;;;;2.38;0.90;;;;;;;11.13;nan;102764.81;5020536;28;20041;-77
2022/04/16 10:56:41;;;;;;;1.45;0.90;;;;;;;11.57;nan;102751.13;5023986;28;20041;-77
2022/04/16 10:59:10;;;;;;;1.75;0.80;;;;;;;11.91;nan;102751.41;5023015;28;20051;-77
2022/04/16 11:01:38;;;;;;;1.83;0.90;;;;;;;11.82;nan;102769.00;5019384;28;20542;-78
2022/04/16 11:04:13;;;;;;;1.45;0.95;;;;;;;11.82;nan;102761.06;5025875;28;20029;-77
2022/04/16 11:06:45;;;;;;;1.48;0.80;;;;;;;11.57;nan;102767.88;5018913;28;20041;-77
2022/04/16 11:09:15;;;;;;;2.50;0.90;;;;;;;12.08;nan;102760.38;5021842;28;20426;-77
2022/04/16 11:11:43;;;;;;;1.58;0.80;;;;;;;11.60;nan;102769.66;5022335;28;20525;-77
2022/04/16 11:14:10;;;;;;;1.27;0.77;;;;;;;11.87;nan;102761.13;5020556;28;20045;-78
2022/04/16 11:16:47;;;;;;;1.33;1.10;;;;;;;12.01;nan;102761.19;5023300;28;20627;-77
2022/04/16 11:19:15;;;;;;;2.50;1.30;;;;;;;11.85;nan;102760.19;5015768;28;20038;-77
2022/04/16 11:21:43;;;;;;;1.40;1.08;;;;;;;11.66;nan;102767.06;5024583;28;20044;-77
2022/04/16 11:24:11;;;;;;;0.93;0.75;;;;;;;12.14;nan;102775.44;5001394;28;20049;-79
2022/04/16 11:34:57;;;;;;;0.70;0.70;;;;;;;12.52;nan;102779.19;5030441;28;20041;-77
2022/04/16 11:37:29;;;;;;;1.15;0.88;;;;;;;12.68;nan;102766.91;5012506;28;20046;-77
2022/04/16 11:40:02;;;;;;;1.05;0.93;;;;;;;12.56;nan;102762.44;5020495;28;20036;-77
2022/04/16 11:42:30;;;;;;;1.60;0.82;;;;;;;12.34;nan;102769.38;5026526;28;20034;-77
2022/04/16 11:44:57;;;;;;;1.20;0.77;;;;;;;12.51;nan;102766.81;5014564;28;20042;-79
2022/04/16 11:47:26;;;;;;;2.17;0.85;;;;;;;12.64;nan;102754.50;5026107;28;20037;-78
2022/04/16 11:49:55;;;;;;;2.25;0.95;;;;;;;12.25;nan;102763.13;5021832;28;20038;-77
2022/04/16 11:52:28;;;;;;;0.90;0.90;;;;;;;12.16;nan;102768.38;5004202;28;20076;-77
2022/04/16 11:55:01;;;;;;;1.63;0.90;;;;;;;11.88;nan;102762.00;5029690;28;20038;-77
2022/04/16 11:57:28;;;;;;;1.40;0.80;;;;;;;12.27;nan;102759.59;5012082;28;20521;-77
2022/04/16 12:00:01;;;;;;;0.98;0.90;;;;;;;12.32;nan;102757.88;5018617;28;20033;-78
2022/04/16 12:02:32;;;;;;;1.77;1.10;;;;;;;12.20;nan;102757.81;5020957;28;20030;-77
2022/04/16 12:05:07;;;;;;;1.27;0.70;;;;;;;12.47;nan;102751.78;5003552;28;20042;-77
2022/04/16 12:07:34;;;;;;;0.90;0.80;;;;;;;12.77;nan;102750.13;5018625;28;20064;-76
2022/04/16 12:10:03;;;;;;;1.83;0.93;;;;;;;12.89;nan;102753.72;5040178;28;20390;-77
2022/04/16 12:12:41;;;;;;;0.82;0.80;;;;;;;12.88;nan;102756.38;5028937;28;20034;-77
2022/04/16 12:15:08;;;;;;;0.90;0.70;;;;;;;12.61;nan;102762.44;5018153;28;20043;-77
2022/04/16 12:17:38;;;;;;;2.65;0.93;;;;;;;12.67;nan;102747.44;4992991;28;20053;-76
2022/04/16 12:20:07;;;;;;;0.93;0.70;;;;;;;12.65;nan;102758.94;5015753;28;20030;-76